Evans, Louisiana
Current Conditions -  °F | °C
As of 5:35 PM on Saturday 22 Nov 2014 (Local Time) from KDRI Reporting Station
Broken Clouds Broken Clouds  
Wind Chill: 66°   Ceiling: 3400
Heat Index: 66°   Visibility: 10mi
Dew Point: 60°   Wind: 5mph
Humidity: 81%   Direction: 90°E
Pressure: 29.93"   Gusts: NA
Location:  30.99°N, 93.5°W
Report Text: KDRI 222335Z AUTO 09004KT 10SM SCT026 BKN034 BKN043 19/16 A2993 RMK AO2 LTG DSNT SW T01910157
Loading
Personal Weather Stations






























Interactive Weather Map New forecast layout! Learn more

10-Day Weather Forecast

Advertisements
Track Severe Weather on mobile